Morristown Municipal Airport Morristown US
ICAO: KMMU
IATA: MMU
Category: Medium
Scheduled Services: No

Elevation: 187 ft
TransAlt. 18000 ft.

Airport Communications:
NEW YORK APP:127.6
ATIS:124.25
CLNC DEL:121.2
CTAF:118.1
NEW YORK DEP:119.2
GND:121.7
TWR:118.1

KMMU Zoom In..

If you have problems with the map follow the link
https://www.worldairports.se/pages/airport.php?
ICAO=KMMU

Runways:

(A) RW 05 length 5998 ft width 150 ft
---- / hdg 49

(B) RW 13 length 3997 ft width 150 ft
---- / hdg 127

(C) RW 23 length 5998 ft width 150 ft
ILS 110.30 / hdg 229

(D) RW 31 length 3997 ft width 150 ft
---- / hdg 307

Location; KMMU
Day. 20 / Time. 20.45 Zulu
* Altimeter: 30.43
* Temperature: -02° c. -28.4°f.
* Wind from: 100° Speed 04 kn.
Dewpoint: -03° c.
Visibility: 1/2 Statute Miles.
Clouds: Overcast 500 ft.
Conditions: Snow.Conditions: Mist.

KMMU 202045Z 10004KT 1/2SM SN BR OVC005 M02/M03 A3043


Wind From 100°
Speed 04 kn.

 
 
jpsmedia.com for Web Design worldairports.se 2019   terms of use